createdAt,value
2023-02-03T00:00:52.357Z,101301.31
2023-02-03T00:03:19.785Z,101300.44
2023-02-03T00:05:47.579Z,101288.59
2023-02-03T00:08:15.708Z,101285.75
2023-02-03T00:10:43.218Z,101280.22
2023-02-03T00:13:10.663Z,101283.75
2023-02-03T00:15:39.408Z,101268.59
2023-02-03T00:18:06.846Z,101263.31
2023-02-03T00:20:34.369Z,101258.19
2023-02-03T00:23:06.123Z,101267.63
2023-02-03T00:25:34.020Z,101273.63
2023-02-03T00:28:01.566Z,101268.28
2023-02-03T00:30:29.124Z,101255.25
2023-02-03T00:32:58.030Z,101248.22
2023-02-03T00:35:25.410Z,101248.03
2023-02-03T00:37:53.749Z,101247.78
2023-02-03T00:40:21.418Z,101235.31
2023-02-03T00:42:48.832Z,101229.53
2023-02-03T00:45:16.306Z,101236.56
2023-02-03T00:47:44.218Z,101229.19
2023-02-03T00:50:13.319Z,101227.09
2023-02-03T00:52:40.761Z,101217.50
2023-02-03T00:55:09.599Z,101221.00
2023-02-03T00:57:38.326Z,101219.78
2023-02-03T01:00:06.992Z,101220.78
2023-02-03T01:02:34.590Z,101213.84
2023-02-03T01:05:03.079Z,101215.06
2023-02-03T01:07:33.872Z,101211.56
2023-02-03T01:10:01.340Z,101215.91
2023-02-03T01:12:30.583Z,101206.22
2023-02-03T01:14:57.992Z,101218.75
2023-02-03T01:17:25.502Z,101207.91
2023-02-03T01:19:53.553Z,101204.84
2023-02-03T01:22:21.059Z,101183.88
2023-02-03T01:24:49.828Z,101186.56
2023-02-03T01:27:17.283Z,101167.66
2023-02-03T01:29:44.701Z,101167.25
2023-02-03T01:32:12.202Z,101162.31
2023-02-03T01:34:39.851Z,101155.31
2023-02-03T01:37:07.668Z,101157.16
2023-02-03T01:39:35.275Z,101145.88
2023-02-03T01:42:04.574Z,101142.56
2023-02-03T01:44:58.587Z,101133.72
2023-02-03T01:47:30.023Z,101126.09
2023-02-03T01:50:02.387Z,101121.78
2023-02-03T01:52:30.387Z,101115.19
2023-02-03T01:55:00.025Z,101104.94
2023-02-03T01:57:34.144Z,101098.34
2023-02-03T02:00:02.203Z,101079.41
2023-02-03T02:02:30.415Z,101081.47
2023-02-03T02:05:01.387Z,101074.66
2023-02-03T02:07:29.059Z,101072.00
2023-02-03T02:09:57.803Z,101065.59
2023-02-03T02:12:25.458Z,101071.34
2023-02-03T02:14:54.589Z,101097.69
2023-02-03T02:17:32.816Z,101116.78
2023-02-03T02:20:34.741Z,101095.81
2023-02-03T02:23:18.629Z,101096.63
2023-02-03T02:25:58.508Z,101086.53
2023-02-03T02:28:50.124Z,101083.06
2023-02-03T02:31:51.773Z,101069.25
2023-02-03T02:34:25.762Z,101077.50
2023-02-03T02:37:01.056Z,101062.88
2023-02-03T02:39:36.684Z,101060.41
2023-02-03T02:42:08.534Z,101064.31
2023-02-03T02:44:38.815Z,101066.56
2023-02-03T02:47:13.839Z,101064.72
2023-02-03T02:49:45.353Z,101047.44
2023-02-03T02:52:15.658Z,101049.72
2023-02-03T02:54:46.793Z,101048.69
2023-02-03T02:57:15.307Z,101061.25
2023-02-03T02:59:43.395Z,101047.63
2023-02-03T03:02:12.842Z,101060.78
2023-02-03T03:04:41.254Z,101047.44
2023-02-03T03:07:11.398Z,101051.94
2023-02-03T03:09:42.468Z,101062.63
2023-02-03T03:12:13.547Z,101052.53
2023-02-03T03:14:44.836Z,101042.50
2023-02-03T03:17:18.729Z,101040.66
2023-02-03T03:19:50.563Z,101036.06
2023-02-03T03:22:18.746Z,101029.09
2023-02-03T03:24:48.563Z,101040.16
2023-02-03T03:27:19.126Z,101024.34
2023-02-03T03:29:50.205Z,100994.69
2023-02-03T03:32:19.012Z,100988.09
2023-02-03T03:34:46.487Z,100997.97
2023-02-03T03:37:17.065Z,100985.59
2023-02-03T03:39:47.231Z,100981.72
2023-02-03T03:42:20.081Z,100986.03
2023-02-03T03:44:53.198Z,100988.94
2023-02-03T03:47:26.583Z,100977.63
2023-02-03T03:49:54.815Z,100988.09
2023-02-03T03:52:24.527Z,100981.72
2023-02-03T03:54:52.439Z,100964.25
2023-02-03T03:57:22.957Z,100962.78
2023-02-03T03:59:51.937Z,100959.88
2023-02-03T04:02:22.570Z,100960.94
2023-02-03T04:04:50.837Z,100963.16
2023-02-03T04:07:19.911Z,100967.09
2023-02-03T04:09:47.373Z,100959.22
2023-02-03T04:12:20.012Z,100948.75
2023-02-03T04:14:47.494Z,100965.44
2023-02-03T04:17:15.050Z,100949.03
2023-02-03T04:19:43.801Z,100971.19
2023-02-03T04:22:11.223Z,100962.53
2023-02-03T04:24:38.614Z,100952.06
2023-02-03T04:27:06.115Z,100945.84
2023-02-03T04:29:33.547Z,100929.00
2023-02-03T04:32:01.062Z,100924.66
2023-02-03T04:34:28.559Z,100930.00
2023-02-03T04:36:57.440Z,100905.72
2023-02-03T04:39:24.897Z,100900.38
2023-02-03T04:41:52.462Z,100892.56
2023-02-03T04:44:20.055Z,100904.31
2023-02-03T04:46:47.563Z,100899.41
2023-02-03T04:49:15.008Z,100882.69
2023-02-03T04:51:44.026Z,100894.44
2023-02-03T04:54:12.846Z,100901.41
2023-02-03T04:56:40.234Z,100910.69
2023-02-03T04:59:07.705Z,100913.53
2023-02-03T05:01:35.116Z,100910.44
2023-02-03T05:04:02.662Z,100902.16
2023-02-03T05:06:31.960Z,100888.88
2023-02-03T05:08:59.485Z,100895.84
2023-02-03T05:11:28.886Z,100925.06
2023-02-03T05:13:56.448Z,100901.78
2023-02-03T05:16:24.140Z,100905.47
2023-02-03T05:18:53.961Z,100902.63
2023-02-03T05:24:35.261Z,100873.03
2023-02-03T05:27:04.310Z,100860.88
2023-02-03T05:29:32.292Z,100848.75
2023-02-03T05:34:56.178Z,100844.41
2023-02-03T05:45:03.264Z,100843.63
2023-02-03T05:47:30.859Z,100831.03
2023-02-03T05:49:58.580Z,100820.34
2023-02-03T05:52:26.192Z,100824.69
2023-02-03T05:57:38.578Z,100812.16
2023-02-03T06:00:34.974Z,100808.53
2023-02-03T06:03:08.504Z,100797.53
2023-02-03T06:05:40.739Z,100794.63
2023-02-03T06:08:08.651Z,100791.97
2023-02-03T06:10:36.423Z,100788.84
2023-02-03T06:13:10.151Z,100789.50
2023-02-03T06:15:39.036Z,100798.09
2023-02-03T06:18:07.569Z,100806.69
2023-02-03T06:20:35.331Z,100775.25
2023-02-03T06:23:03.998Z,100780.16
2023-02-03T06:25:32.816Z,100785.34
2023-02-03T06:30:46.544Z,100778.47
2023-02-03T06:33:14.081Z,100778.47
2023-02-03T06:35:41.658Z,100771.84
2023-02-03T06:38:09.128Z,100780.84
2023-02-03T06:40:37.654Z,100778.59
2023-02-03T06:43:05.154Z,100772.91
2023-02-03T06:45:32.689Z,100797.56
2023-02-03T06:48:01.558Z,100786.03
2023-02-03T06:50:29.514Z,100772.66
2023-02-03T06:52:57.366Z,100776.16
2023-02-03T06:55:24.847Z,100760.94
2023-02-03T06:57:52.892Z,100771.63
2023-02-03T07:00:21.364Z,100783.53
2023-02-03T07:02:54.509Z,100750.16
2023-02-03T07:05:23.670Z,100762.41
2023-02-03T07:07:51.232Z,100763.38
2023-02-03T07:10:18.699Z,100746.50
2023-02-03T07:12:46.392Z,100749.81
2023-02-03T07:15:14.358Z,100756.59
2023-02-03T07:17:41.845Z,100733.50
2023-02-03T07:20:10.115Z,100743.53
2023-02-03T07:22:40.717Z,100740.72
2023-02-03T07:25:08.492Z,100748.97
2023-02-03T07:27:35.942Z,100754.38
2023-02-03T07:30:04.644Z,100744.81
2023-02-03T07:32:32.957Z,100726.06
2023-02-03T07:35:05.009Z,100731.31
2023-02-03T07:37:32.496Z,100724.94
2023-02-03T07:40:04.210Z,100738.75
2023-02-03T07:42:31.736Z,100735.66
2023-02-03T07:44:59.178Z,100747.09
2023-02-03T07:47:26.617Z,100726.72
2023-02-03T07:49:54.123Z,100727.16
2023-02-03T07:52:22.113Z,100719.88
2023-02-03T07:54:49.548Z,100724.97
2023-02-03T07:57:18.282Z,100726.41
2023-02-03T07:59:45.717Z,100724.41
2023-02-03T08:02:13.126Z,100719.06
2023-02-03T08:04:40.632Z,100727.44
2023-02-03T08:07:08.138Z,100725.97
2023-02-03T08:09:35.608Z,100714.88
2023-02-03T08:12:03.337Z,100746.31
2023-02-03T08:14:32.318Z,100715.81
2023-02-03T08:16:59.763Z,100723.63
2023-02-03T08:19:27.451Z,100719.69
2023-02-03T08:21:54.897Z,100723.19
2023-02-03T08:24:22.404Z,100731.59
2023-02-03T08:26:50.035Z,100720.16
2023-02-03T08:29:17.682Z,100734.94
2023-02-03T08:31:46.585Z,100741.94
2023-02-03T08:34:14.149Z,100734.41
2023-02-03T08:36:42.973Z,100733.47
2023-02-03T08:39:10.457Z,100724.25
2023-02-03T08:41:38.062Z,100729.97
2023-02-03T08:44:05.446Z,100736.41
2023-02-03T08:46:33.125Z,100735.44
2023-02-03T08:49:03.607Z,100786.31
2023-02-03T08:51:31.264Z,100800.47
2023-02-03T08:53:58.681Z,100806.78
2023-02-03T08:56:27.434Z,100801.66
2023-02-03T08:58:56.109Z,100832.34
2023-02-03T09:01:23.715Z,100828.47
2023-02-03T09:03:51.228Z,100834.81
2023-02-03T09:06:22.751Z,100809.72
2023-02-03T09:08:51.177Z,100827.25
2023-02-03T09:11:19.779Z,100831.88
2023-02-03T09:13:48.649Z,100822.16
2023-02-03T09:16:18.076Z,100814.78
2023-02-03T09:18:46.171Z,100816.56
2023-02-03T09:21:23.878Z,100835.06
2023-02-03T09:24:03.010Z,100818.13
2023-02-03T09:26:30.429Z,100781.19
2023-02-03T09:28:57.901Z,100783.28
2023-02-03T09:31:25.339Z,100798.16
2023-02-03T09:33:52.779Z,100820.44
2023-02-03T09:36:20.241Z,100803.56
2023-02-03T09:38:47.671Z,100820.06
2023-02-03T09:41:22.783Z,100811.31
2023-02-03T09:43:53.195Z,100828.00
2023-02-03T09:46:22.804Z,100820.13
2023-02-03T09:48:52.939Z,100824.72
2023-02-03T09:51:22.425Z,100839.31
2023-02-03T09:53:52.553Z,100844.72
2023-02-03T09:56:27.187Z,100840.44
2023-02-03T09:58:54.681Z,100856.47
2023-02-03T10:01:23.058Z,100853.16
2023-02-03T10:03:54.500Z,100841.19
2023-02-03T10:06:28.038Z,100860.34
2023-02-03T10:09:04.989Z,100860.19
2023-02-03T10:11:44.364Z,100849.19
2023-02-03T10:14:21.559Z,100867.03
2023-02-03T10:16:59.412Z,100906.56
2023-02-03T10:19:28.601Z,100881.28
2023-02-03T10:21:59.438Z,100876.34
2023-02-03T10:24:29.786Z,100883.13
2023-02-03T10:26:58.595Z,100870.03
2023-02-03T10:29:32.917Z,100876.31
2023-02-03T10:32:00.756Z,100880.72
2023-02-03T10:34:28.299Z,100874.25
2023-02-03T10:36:57.549Z,100895.25
2023-02-03T10:39:30.951Z,100904.31
2023-02-03T10:41:59.938Z,100907.47
2023-02-03T10:44:33.228Z,100885.03
2023-02-03T10:47:00.684Z,100918.78
2023-02-03T10:49:29.516Z,100920.72
2023-02-03T10:52:03.665Z,100921.50
2023-02-03T10:54:32.910Z,100913.03
2023-02-03T10:57:06.589Z,100930.34
2023-02-03T10:59:36.502Z,100940.94
2023-02-03T11:02:10.583Z,100946.03
2023-02-03T11:04:38.368Z,100950.78
2023-02-03T11:07:08.306Z,100935.78
2023-02-03T11:09:38.202Z,100943.38
2023-02-03T11:12:14.459Z,100926.19
2023-02-03T11:14:44.277Z,100933.63
2023-02-03T11:17:17.270Z,100951.06
2023-02-03T11:19:45.817Z,100929.03
2023-02-03T11:22:14.347Z,100940.41
2023-02-03T11:24:42.885Z,100932.09
2023-02-03T11:27:14.721Z,100940.72
2023-02-03T11:29:44.222Z,100936.06
2023-02-03T11:32:18.292Z,100943.16
2023-02-03T11:34:48.525Z,100943.63
2023-02-03T11:37:28.437Z,100942.59
2023-02-03T11:40:18.059Z,100935.59
2023-02-03T11:43:00.490Z,100946.34
2023-02-03T11:45:29.158Z,100936.38
2023-02-03T11:47:58.712Z,100934.78
2023-02-03T11:50:30.703Z,100909.09
2023-02-03T11:53:07.596Z,100933.38
2023-02-03T11:55:44.102Z,100941.94
2023-02-03T11:58:28.962Z,100951.81
2023-02-03T12:01:04.545Z,100943.28
2023-02-03T12:03:45.271Z,100944.66
2023-02-03T12:06:28.359Z,100966.81
2023-02-03T12:09:05.865Z,100962.34
2023-02-03T12:11:45.591Z,100987.88
2023-02-03T12:14:25.573Z,100993.28
2023-02-03T12:17:14.268Z,101001.63
2023-02-03T12:19:55.577Z,100988.56
2023-02-03T12:22:29.940Z,100986.97
2023-02-03T12:25:01.624Z,100976.06
2023-02-03T12:27:38.860Z,101001.94
2023-02-03T12:30:11.908Z,101021.84
2023-02-03T12:32:43.681Z,101029.94
2023-02-03T12:35:14.994Z,101026.88
2023-02-03T12:37:49.679Z,101010.59
2023-02-03T12:40:20.099Z,101031.63
2023-02-03T12:42:52.647Z,101008.63
2023-02-03T12:45:23.823Z,101025.72
2023-02-03T12:47:56.154Z,101023.88
2023-02-03T12:50:30.670Z,101033.31
2023-02-03T12:53:00.796Z,101020.53
2023-02-03T12:55:33.704Z,101032.34
2023-02-03T12:58:03.467Z,101033.53
2023-02-03T13:00:37.771Z,101044.69
2023-02-03T13:03:12.373Z,101020.09
2023-02-03T13:05:43.609Z,101020.94
2023-02-03T13:08:16.657Z,101028.78
2023-02-03T13:10:48.575Z,101021.94
2023-02-03T13:13:19.486Z,101017.63
2023-02-03T13:15:52.456Z,101034.34
2023-02-03T13:18:26.324Z,101022.19
2023-02-03T13:20:54.141Z,101043.78
2023-02-03T13:23:21.905Z,101034.16
2023-02-03T13:26:16.661Z,101042.72
2023-02-03T13:28:58.511Z,101053.09
2023-02-03T13:31:36.620Z,101049.16
2023-02-03T13:34:16.486Z,101069.13
2023-02-03T13:37:00.852Z,101058.56
2023-02-03T13:39:37.377Z,101050.38
2023-02-03T13:42:22.077Z,101055.94
2023-02-03T13:44:51.608Z,101053.09
2023-02-03T13:47:24.141Z,101058.41
2023-02-03T13:49:54.334Z,101069.91
2023-02-03T13:52:27.145Z,101068.66
2023-02-03T13:54:54.818Z,101072.13
2023-02-03T13:57:24.139Z,101075.75
2023-02-03T13:59:51.582Z,101064.56
2023-02-03T14:02:43.285Z,101062.41
2023-02-03T14:05:44.724Z,101088.31
2023-02-03T14:08:48.842Z,101079.56
2023-02-03T14:11:46.013Z,101079.53
2023-02-03T14:14:41.854Z,101076.91
2023-02-03T14:18:02.819Z,101096.97
2023-02-03T14:20:52.400Z,101100.72
2023-02-03T14:23:24.261Z,101095.56
2023-02-03T14:25:53.801Z,101076.84
2023-02-03T14:28:23.555Z,101117.81
2023-02-03T14:31:06.108Z,101127.06
2023-02-03T14:34:13.065Z,101100.44
2023-02-03T14:36:45.571Z,101119.03
2023-02-03T14:40:01.435Z,101113.44
2023-02-03T14:42:46.787Z,101099.88
2023-02-03T14:45:24.613Z,101101.28
2023-02-03T14:48:02.905Z,101100.22
2023-02-03T14:50:39.411Z,101118.22
2023-02-03T14:53:22.094Z,101104.56
2023-02-03T14:55:55.113Z,101109.16
2023-02-03T14:58:27.535Z,101126.66
2023-02-03T15:00:55.405Z,101119.84
2023-02-03T15:03:25.474Z,101132.19
2023-02-03T15:05:55.741Z,101142.22
2023-02-03T15:08:53.036Z,101126.41
2023-02-03T15:11:32.973Z,101151.75
2023-02-03T15:14:19.977Z,101133.03
2023-02-03T15:16:49.492Z,101145.94
2023-02-03T15:19:18.977Z,101148.19
2023-02-03T15:21:46.618Z,101151.97
2023-02-03T15:24:18.600Z,101136.13
2023-02-03T15:26:47.191Z,101145.41
2023-02-03T15:29:23.046Z,101168.03
2023-02-03T15:31:53.365Z,101167.75
2023-02-03T15:34:26.169Z,101164.09
2023-02-03T15:36:55.900Z,101174.25
2023-02-03T15:39:38.753Z,101176.25
2023-02-03T15:42:09.684Z,101177.06
2023-02-03T15:44:42.062Z,101176.69
2023-02-03T15:47:21.499Z,101174.63
2023-02-03T15:49:55.754Z,101184.06
2023-02-03T15:52:24.735Z,101161.63
2023-02-03T15:54:59.477Z,101179.56
2023-02-03T15:57:29.773Z,101147.88
2023-02-03T15:59:59.702Z,101177.09
2023-02-03T16:02:29.685Z,101178.72
2023-02-03T16:04:57.616Z,101192.91
2023-02-03T16:07:27.283Z,101188.00
2023-02-03T16:09:57.104Z,101197.06
2023-02-03T16:12:25.636Z,101206.75
2023-02-03T16:14:53.810Z,101211.69
2023-02-03T16:17:24.960Z,101214.81
2023-02-03T16:19:52.995Z,101200.19
2023-02-03T16:22:30.349Z,101193.19
2023-02-03T16:25:14.174Z,101209.59
2023-02-03T16:27:41.745Z,101186.19
2023-02-03T16:30:42.162Z,101200.97
2023-02-03T16:33:36.662Z,101192.53
2023-02-03T16:36:29.548Z,101202.41
2023-02-03T16:39:15.095Z,101188.41
2023-02-03T16:42:01.721Z,101200.97
2023-02-03T16:44:46.809Z,101191.06
2023-02-03T16:47:40.673Z,101204.06
2023-02-03T16:50:37.848Z,101198.91
2023-02-03T16:53:07.049Z,101201.44
2023-02-03T16:55:34.522Z,101199.75
2023-02-03T16:58:03.455Z,101221.84
2023-02-03T17:00:30.846Z,101211.25
2023-02-03T17:02:58.757Z,101222.41
2023-02-03T17:05:26.262Z,101235.34
2023-02-03T17:07:53.803Z,101226.50
2023-02-03T17:10:21.348Z,101228.94
2023-02-03T17:12:48.738Z,101224.66
2023-02-03T17:15:17.591Z,101230.06
2023-02-03T17:17:46.010Z,101242.59
2023-02-03T17:20:13.523Z,101241.56
2023-02-03T17:22:40.986Z,101241.75
2023-02-03T17:25:09.866Z,101248.13
2023-02-03T17:27:37.498Z,101266.69
2023-02-03T17:30:05.761Z,101257.03
2023-02-03T17:32:34.761Z,101252.88
2023-02-03T17:35:02.222Z,101251.25
2023-02-03T17:37:29.743Z,101272.47
2023-02-03T17:53:57.126Z,101283.38
2023-02-03T17:56:26.056Z,101301.25
2023-02-03T17:58:56.372Z,101287.91
2023-02-03T18:01:25.320Z,101298.81
2023-02-03T18:03:56.556Z,101313.19
2023-02-03T18:06:25.552Z,101285.44
2023-02-03T18:08:53.542Z,101302.31
2023-02-03T18:11:21.895Z,101314.03
2023-02-03T18:13:50.417Z,101320.41
2023-02-03T18:16:22.199Z,101320.81
2023-02-03T18:18:51.246Z,101332.56
2023-02-03T18:21:22.248Z,101345.72
2023-02-03T18:23:51.081Z,101358.66
2023-02-03T18:26:20.185Z,101359.09
2023-02-03T18:28:47.702Z,101380.69
2023-02-03T18:31:17.519Z,101392.81
2023-02-03T18:33:46.140Z,101380.06
2023-02-03T18:36:14.150Z,101372.06
2023-02-03T18:38:44.366Z,101385.66
2023-02-03T18:41:14.842Z,101377.81
2023-02-03T18:43:42.359Z,101392.00
2023-02-03T18:46:10.800Z,101382.13
2023-02-03T18:48:38.606Z,101394.66
2023-02-03T18:51:09.327Z,101394.09
2023-02-03T18:53:38.192Z,101410.31
2023-02-03T18:56:08.841Z,101411.75
2023-02-03T18:58:38.516Z,101418.53
2023-02-03T19:01:06.405Z,101414.03
2023-02-03T19:03:34.387Z,101408.25
2023-02-03T19:06:03.521Z,101411.75
2023-02-03T19:08:31.000Z,101414.81
2023-02-03T19:10:58.444Z,101432.53
2023-02-03T19:13:27.410Z,101426.97
2023-02-03T19:15:54.805Z,101455.13
2023-02-03T19:18:22.225Z,101448.53
2023-02-03T19:20:49.674Z,101460.06
2023-02-03T19:23:17.047Z,101472.19
2023-02-03T19:25:44.511Z,101452.28
2023-02-03T19:28:20.074Z,101487.88
2023-02-03T19:30:57.493Z,101479.63
2023-02-03T19:33:27.348Z,101489.72
2023-02-03T19:35:54.755Z,101503.50
2023-02-03T19:38:22.175Z,101505.56
2023-02-03T19:40:49.567Z,101497.69
2023-02-03T19:43:17.111Z,101504.28
2023-02-03T19:45:44.527Z,101510.63
2023-02-03T19:48:13.428Z,101510.63
2023-02-03T19:50:45.738Z,101526.91
2023-02-03T19:53:13.659Z,101527.69
2023-02-03T19:55:42.858Z,101541.03
2023-02-03T19:58:10.424Z,101538.00
2023-02-03T20:00:37.926Z,101543.31
2023-02-03T20:03:05.737Z,101536.09
2023-02-03T20:05:34.736Z,101550.88
2023-02-03T20:08:02.109Z,101550.28
2023-02-03T20:10:29.917Z,101555.81
2023-02-03T20:12:58.695Z,101575.38
2023-02-03T20:15:26.898Z,101589.78
2023-02-03T20:17:54.491Z,101582.38
2023-02-03T20:20:22.184Z,101578.38
2023-02-03T20:22:51.122Z,101570.25
2023-02-03T20:25:19.234Z,101591.44
2023-02-03T20:27:46.834Z,101591.84
2023-02-03T20:30:14.766Z,101587.19
2023-02-03T20:32:42.448Z,101598.31
2023-02-03T20:35:10.148Z,101584.25
2023-02-03T20:37:37.642Z,101595.56
2023-02-03T20:40:11.247Z,101608.09
2023-02-03T20:42:38.624Z,101625.16
2023-02-03T20:45:10.685Z,101627.34
2023-02-03T20:47:38.116Z,101641.91
2023-02-03T20:50:07.650Z,101645.16
2023-02-03T20:52:35.052Z,101653.28
2023-02-03T20:55:03.126Z,101657.47
2023-02-03T20:57:31.999Z,101671.63
2023-02-03T20:59:59.498Z,101683.19
2023-02-03T21:02:33.996Z,101673.25
2023-02-03T21:05:04.614Z,101694.88
2023-02-03T21:07:32.074Z,101695.56
2023-02-03T21:10:00.319Z,101707.53
2023-02-03T21:12:28.452Z,101722.47
2023-02-03T21:14:57.718Z,101729.59
2023-02-03T21:17:26.847Z,101751.38
2023-02-03T21:19:55.404Z,101751.63
2023-02-03T21:22:24.497Z,101769.53
2023-02-03T21:24:53.818Z,101788.41
2023-02-03T21:27:28.584Z,101780.75
2023-02-03T21:29:57.924Z,101792.72
2023-02-03T21:32:27.117Z,101799.72
2023-02-03T21:34:54.796Z,101827.78
2023-02-03T21:37:38.743Z,101834.31
2023-02-03T21:40:18.970Z,101841.56
2023-02-03T21:42:47.378Z,101847.66
2023-02-03T21:45:37.861Z,101840.00
2023-02-03T21:48:24.986Z,101862.94
2023-02-03T21:50:52.454Z,101881.44
2023-02-03T21:53:25.468Z,101887.34
2023-02-03T21:55:52.943Z,101897.53
2023-02-03T21:58:24.131Z,101894.59
2023-02-03T22:00:53.850Z,101901.88
2023-02-03T22:03:26.174Z,101914.47
2023-02-03T22:05:56.939Z,101918.34
2023-02-03T22:08:24.847Z,101932.34
2023-02-03T22:10:52.243Z,101948.03
2023-02-03T22:13:20.182Z,101958.47
2023-02-03T22:15:48.835Z,101961.50
2023-02-03T22:18:17.716Z,101966.31
2023-02-03T22:20:45.186Z,101977.34
2023-02-03T22:23:12.664Z,101987.03
2023-02-03T22:25:40.216Z,101991.81
2023-02-03T22:28:07.715Z,101990.63
2023-02-03T22:30:35.378Z,101997.03
2023-02-03T22:33:03.062Z,101997.88
2023-02-03T22:35:32.047Z,102010.50
2023-02-03T22:37:59.695Z,102020.81
2023-02-03T22:40:27.366Z,102023.78
2023-02-03T22:42:54.966Z,102037.66
2023-02-03T22:45:22.782Z,102042.63
2023-02-03T22:47:50.290Z,102050.19
2023-02-03T22:50:24.579Z,102059.56
2023-02-03T22:52:59.858Z,102074.13
2023-02-03T22:55:27.472Z,102080.06
2023-02-03T22:57:54.983Z,102089.13
2023-02-03T23:00:24.479Z,102094.91
2023-02-03T23:02:52.629Z,102092.84
2023-02-03T23:05:20.441Z,102099.25
2023-02-03T23:07:48.135Z,102117.63
2023-02-03T23:10:19.384Z,102122.03
2023-02-03T23:12:47.083Z,102116.69
2023-02-03T23:15:15.262Z,102130.91
2023-02-03T23:17:42.828Z,102130.81
2023-02-03T23:20:12.292Z,102126.66
2023-02-03T23:22:39.878Z,102144.28
2023-02-03T23:25:07.952Z,102144.75
2023-02-03T23:27:36.750Z,102145.28
2023-02-03T23:30:05.022Z,102164.44
2023-02-03T23:32:33.665Z,102163.41
2023-02-03T23:35:18.937Z,102170.63
2023-02-03T23:37:46.770Z,102179.16
2023-02-03T23:40:14.351Z,102190.06
2023-02-03T23:42:43.289Z,102185.88
2023-02-03T23:45:12.669Z,102197.53
